Time;durP1;ratioP1;P1;durP2;ratioP2;P2;SDS_P1;SDS_P2;PMS_P1;PMS_P2;Temp;Humidity;BMP_temperature;BMP_pressure;BME280_temperature;BME280_humidity;BME280_pressure;Samples;Min_cycle;Max_cycle;Signal;HPM_P1;HPM_P2
2023/05/15 00:03:05;;;;;;;3.20;2.90;;;;;;;8.49;100.00;96126.34;10411536;28;20220;-67
2023/05/15 00:08:05;;;;;;;3.17;2.17;;;;;;;8.41;100.00;96110.63;10418752;28;20204;-67
2023/05/15 00:13:06;;;;;;;3.20;2.47;;;;;;;8.31;100.00;96112.53;10418457;28;20196;-67
2023/05/15 00:18:06;;;;;;;2.73;2.33;;;;;;;8.41;100.00;96110.63;10418940;28;20355;-67
2023/05/15 00:23:06;;;;;;;4.07;2.47;;;;;;;8.20;100.00;96098.78;10418474;28;20217;-67
2023/05/15 00:28:07;;;;;;;3.40;2.67;;;;;;;8.15;100.00;96102.88;10418424;28;20216;-67
2023/05/15 00:33:07;;;;;;;2.43;2.23;;;;;;;8.15;100.00;96095.84;10417868;28;20235;-67
2023/05/15 00:38:08;;;;;;;4.33;2.80;;;;;;;8.09;100.00;96093.06;10418024;28;20212;-67
2023/05/15 00:43:11;;;;;;;2.80;2.40;;;;;;;7.99;100.00;96091.38;10416245;28;20303;-67
2023/05/15 00:48:11;;;;;;;2.53;2.20;;;;;;;7.88;100.00;96085.59;10417573;28;20680;-67
2023/05/15 00:53:12;;;;;;;3.80;2.20;;;;;;;7.98;100.00;96078.50;10417525;28;20741;-67
2023/05/15 00:58:13;;;;;;;3.63;2.20;;;;;;;7.89;100.00;96075.03;10416835;28;20220;-67
2023/05/15 01:03:14;;;;;;;6.67;2.30;;;;;;;7.78;100.00;96075.28;10415154;28;20244;-67
2023/05/15 01:08:20;;;;;;;3.70;2.20;;;;;;;7.89;100.00;96074.19;10415302;28;20216;-67
2023/05/15 01:13:21;;;;;;;6.13;2.40;;;;;;;7.88;100.00;96085.59;10414851;28;20340;-67
2023/05/15 01:18:21;;;;;;;2.73;2.13;;;;;;;7.91;100.00;96077.47;10416492;28;20235;-67
2023/05/15 01:23:59;;;;;;;6.17;2.13;;;;;;;7.88;100.00;96069.97;10415750;28;20293;-67
2023/05/15 01:29:08;;;;;;;5.03;2.60;;;;;;;7.80;100.00;96068.94;10415789;28;20732;-67
2023/05/15 01:34:09;;;;;;;2.30;2.10;;;;;;;7.73;100.00;96069.72;10414809;28;20185;-67
2023/05/15 01:39:10;;;;;;;3.17;2.33;;;;;;;7.70;100.00;96059.59;10413855;28;20215;-66
2023/05/15 01:44:25;;;;;;;3.53;2.63;;;;;;;7.57;100.00;96060.03;10397484;28;20216;-66
2023/05/15 01:49:26;;;;;;;3.00;2.53;;;;;;;7.71;100.00;96049.00;10413602;28;20672;-66
2023/05/15 01:54:27;;;;;;;2.90;2.33;;;;;;;7.76;100.00;96048.53;10414872;28;20605;-66
2023/05/15 01:59:28;;;;;;;4.50;2.60;;;;;;;7.76;100.00;96038.13;10414099;28;20215;-66
2023/05/15 02:04:29;;;;;;;4.27;2.30;;;;;;;7.71;100.00;96038.59;10413612;28;20691;-66
2023/05/15 02:09:31;;;;;;;3.00;2.17;;;;;;;7.75;100.00;96032.09;10413781;28;20655;-66
2023/05/15 02:14:31;;;;;;;2.23;2.03;;;;;;;8.03;100.00;96031.88;10396018;28;20558;-66
2023/05/15 02:19:31;;;;;;;1.90;1.80;;;;;;;8.04;100.00;96030.91;10395978;28;20204;-66
2023/05/15 02:24:32;;;;;;;2.60;2.10;;;;;;;7.96;100.00;96026.50;10413532;28;20255;-67
2023/05/15 02:29:41;;;;;;;4.13;2.20;;;;;;;8.10;100.00;96021.63;10412903;28;20216;-67
2023/05/15 02:34:55;;;;;;;2.47;2.00;;;;;;;8.03;100.00;96005.78;10412103;28;20262;-66
2023/05/15 02:39:58;;;;;;;4.33;1.80;;;;;;;7.99;100.00;96005.31;10411689;28;20296;-67
2023/05/15 02:44:59;;;;;;;2.30;2.10;;;;;;;7.91;100.00;96001.84;10411583;28;20213;-67
2023/05/15 02:50:00;;;;;;;3.30;2.13;;;;;;;7.97;100.00;95994.19;10385870;28;20244;-67
2023/05/15 02:55:00;;;;;;;2.67;1.90;;;;;;;8.08;100.00;95998.31;10386733;28;20193;-67
2023/05/15 03:00:01;;;;;;;1.97;1.80;;;;;;;8.12;100.00;95994.41;10370274;28;20841;-67
2023/05/15 03:05:01;;;;;;;1.87;1.77;;;;;;;8.13;100.00;95985.63;10397018;28;20225;-67
2023/05/15 03:10:02;;;;;;;2.00;1.90;;;;;;;8.08;100.00;95982.66;10410340;28;20678;-66
2023/05/15 03:15:02;;;;;;;2.20;2.00;;;;;;;8.08;100.00;95982.66;10411528;28;20547;-66
2023/05/15 03:20:03;;;;;;;5.60;2.20;;;;;;;8.12;100.00;95983.16;10412153;28;20196;-67
2023/05/15 03:25:04;;;;;;;2.40;1.80;;;;;;;8.14;100.00;95976.78;10411084;28;20224;-67
2023/05/15 03:30:05;;;;;;;2.10;2.00;;;;;;;8.10;100.00;95972.06;10410913;28;20219;-66
2023/05/15 03:35:05;;;;;;;2.60;1.77;;;;;;;8.06;100.00;95963.75;10411088;28;20242;-67
2023/05/15 03:40:07;;;;;;;3.20;2.20;;;;;;;8.07;100.00;95968.00;10409229;28;20212;-66
2023/05/15 03:45:08;;;;;;;2.37;2.17;;;;;;;8.02;100.00;95967.63;10411162;28;20224;-67
2023/05/15 03:50:08;;;;;;;2.33;2.13;;;;;;;7.96;100.00;95970.88;10408881;28;20240;-67
2023/05/15 03:55:09;;;;;;;2.80;2.30;;;;;;;7.91;100.00;95973.97;10411063;28;20191;-67
2023/05/15 04:00:10;;;;;;;2.27;2.17;;;;;;;7.89;100.00;95975.94;10408942;28;20299;-66
2023/05/15 04:05:14;;;;;;;2.57;2.37;;;;;;;7.92;100.00;95974.81;10410417;28;20219;-67
2023/05/15 04:10:14;;;;;;;3.17;2.87;;;;;;;7.92;100.00;95972.19;10410821;28;20263;-67
2023/05/15 04:15:20;;;;;;;2.67;2.40;;;;;;;8.09;100.00;95967.84;10410577;28;20185;-67
2023/05/15 04:20:22;;;;;;;7.10;4.57;;;;;;;8.15;100.00;95975.84;10409214;28;20254;-66
2023/05/15 04:25:23;;;;;;;28.00;14.97;;;;;;;8.08;100.00;95966.19;10410204;28;20225;-67
2023/05/15 04:30:23;;;;;;;3.10;2.80;;;;;;;8.08;100.00;95968.81;10410062;28;20220;-67
2023/05/15 04:35:23;;;;;;;2.57;2.37;;;;;;;8.07;100.00;95970.59;10410119;28;20659;-67
2023/05/15 04:40:24;;;;;;;3.00;2.80;;;;;;;8.32;100.00;95973.25;10409716;28;20752;-67
2023/05/15 04:45:24;;;;;;;4.37;2.87;;;;;;;8.46;100.00;95971.84;10410144;28;20228;-67
2023/05/15 04:50:24;;;;;;;4.90;3.00;;;;;;;8.48;100.00;95975.91;10412701;28;20240;-67
2023/05/15 04:55:25;;;;;;;3.73;3.20;;;;;;;8.56;100.00;95967.28;10417072;28;20203;-67
2023/05/15 05:00:25;;;;;;;3.17;2.77;;;;;;;8.65;100.00;95968.94;10417069;28;20255;-67
2023/05/15 05:05:26;;;;;;;4.53;3.30;;;;;;;8.67;100.00;95966.16;10416501;28;20224;-67
2023/05/15 05:10:26;;;;;;;3.67;3.37;;;;;;;8.70;100.00;95961.41;10416581;28;20721;-67
2023/05/15 05:15:26;;;;;;;3.33;3.03;;;;;;;8.57;100.00;95959.28;10416235;28;20213;-67
2023/05/15 05:20:27;;;;;;;4.40;3.30;;;;;;;8.86;100.00;95960.56;10416204;28;20212;-67
2023/05/15 05:25:27;;;;;;;4.30;3.13;;;;;;;8.85;100.00;95958.13;10415900;28;20232;-67
2023/05/15 05:30:27;;;;;;;4.20;3.40;;;;;;;9.10;100.00;95945.88;10415706;28;20623;-67
2023/05/15 05:35:28;;;;;;;3.57;3.23;;;;;;;9.12;100.00;95943.09;10415952;28;20675;-67
2023/05/15 05:40:29;;;;;;;6.47;3.80;;;;;;;9.39;100.00;95947.13;10415224;28;20694;-67
2023/05/15 05:45:29;;;;;;;4.00;3.60;;;;;;;9.52;100.00;95936.13;10415394;28;20656;-67
2023/05/15 05:50:29;;;;;;;3.77;3.47;;;;;;;9.62;100.00;95939.34;10432299;23;20303;-67
2023/05/15 05:55:30;;;;;;;4.30;3.90;;;;;;;9.90;100.00;95934.47;10414859;28;20272;-68
2023/05/15 06:00:30;;;;;;;5.03;4.17;;;;;;;10.13;100.00;95921.41;10413489;28;20216;-67
2023/05/15 06:05:31;;;;;;;4.43;4.03;;;;;;;10.51;100.00;95905.81;10414416;28;20220;-67
2023/05/15 06:10:31;;;;;;;6.10;4.23;;;;;;;10.70;100.00;95895.84;10414134;28;20609;-67
2023/05/15 06:15:31;;;;;;;4.40;4.00;;;;;;;10.80;100.00;95880.69;10413787;28;20181;-67
2023/05/15 06:20:32;;;;;;;5.90;4.75;;;;;;;11.14;100.00;95876.72;10413909;28;20212;-67
2023/05/15 06:25:32;;;;;;;5.50;5.00;;;;;;;11.33;100.00;95874.56;10413448;28;20223;-67
2023/05/15 06:30:33;;;;;;;5.75;5.03;;;;;;;11.68;100.00;95866.91;10413480;28;20216;-67
2023/05/15 06:35:33;;;;;;;8.50;5.05;;;;;;;12.03;100.00;95846.94;10413017;28;20227;-67
2023/05/15 06:40:33;;;;;;;6.68;5.78;;;;;;;12.16;100.00;95856.78;10411502;28;20219;-68
2023/05/15 06:45:34;;;;;;;7.70;6.10;;;;;;;12.41;100.00;95857.19;10413218;28;20208;-67
2023/05/15 06:50:34;;;;;;;8.48;5.78;;;;;;;12.64;100.00;95853.53;10412333;28;20718;-67
2023/05/15 06:55:36;;;;;;;6.35;5.57;;;;;;;13.12;100.00;95848.38;10412586;28;20705;-67
2023/05/15 07:00:37;;;;;;;6.57;5.20;;;;;;;13.63;100.00;95825.34;10412076;28;20588;-67
2023/05/15 07:05:37;;;;;;;6.53;5.47;;;;;;;13.82;100.00;95813.28;10412087;28;20220;-67
2023/05/15 07:10:38;;;;;;;5.53;5.00;;;;;;;14.21;97.56;95801.16;10412079;28;20219;-67
2023/05/15 07:15:38;;;;;;;7.07;5.10;;;;;;;14.63;92.66;95786.81;10411726;28;20242;-67
2023/05/15 07:20:39;;;;;;;6.43;4.93;;;;;;;15.32;86.11;95752.94;10411622;28;20223;-67
2023/05/15 07:25:39;;;;;;;5.30;4.80;;;;;;;15.64;82.94;95745.06;10411293;28;20232;-67
2023/05/15 07:30:39;;;;;;;6.18;4.47;;;;;;;16.01;78.69;95739.97;10411412;28;20208;-67
2023/05/15 07:35:40;;;;;;;7.45;4.90;;;;;;;16.04;79.23;95747.44;10411119;28;20400;-67
2023/05/15 07:40:40;;;;;;;6.50;4.75;;;;;;;15.58;79.63;95751.19;10410863;28;20311;-67
2023/05/15 07:45:40;;;;;;;9.18;7.20;;;;;;;15.00;85.43;95788.16;10410585;28;20285;-67
2023/05/15 07:50:41;;;;;;;7.07;5.95;;;;;;;14.67;84.98;95779.31;10410648;28;20259;-67
2023/05/15 07:55:42;;;;;;;6.30;5.70;;;;;;;15.32;82.85;95766.13;10410702;28;20197;-68
2023/05/15 08:00:42;;;;;;;8.25;7.35;;;;;;;15.90;80.86;95753.06;10410240;28;20204;-68
2023/05/15 08:05:43;;;;;;;8.52;5.85;;;;;;;15.22;83.32;95773.69;10410578;28;20778;-68
2023/05/15 08:10:43;;;;;;;9.45;6.22;;;;;;;14.91;81.41;95750.66;10410182;28;20575;-68
2023/05/15 08:15:43;;;;;;;7.82;5.90;;;;;;;15.61;80.97;95756.03;10410617;28;20558;-68
2023/05/15 08:20:44;;;;;;;6.97;5.68;;;;;;;16.12;77.87;95724.44;10409862;28;20216;-68
2023/05/15 08:25:45;;;;;;;6.82;4.97;;;;;;;15.94;78.95;95744.50;10413966;28;20223;-68
2023/05/15 08:30:45;;;;;;;7.78;6.20;;;;;;;15.75;76.71;95717.16;10417831;28;20307;-68
2023/05/15 08:35:45;;;;;;;7.28;6.13;;;;;;;16.08;78.76;95747.03;10417591;28;20197;-68
2023/05/15 08:40:47;;;;;;;8.25;5.78;;;;;;;16.43;75.75;95717.47;10417593;28;20220;-68
2023/05/15 08:45:48;;;;;;;7.68;5.82;;;;;;;16.59;73.59;95707.13;10416918;28;20228;-68
2023/05/15 08:50:49;;;;;;;9.20;6.45;;;;;;;16.05;76.68;95733.22;10417060;28;20599;-68
2023/05/15 08:55:49;;;;;;;7.38;5.93;;;;;;;15.91;75.68;95723.81;10416998;28;20682;-68
2023/05/15 09:00:50;;;;;;;7.15;5.70;;;;;;;15.85;74.39;95706.16;10415411;28;20208;-68
2023/05/15 09:05:52;;;;;;;8.80;5.80;;;;;;;16.53;72.67;95699.28;10416821;28;20220;-67
2023/05/15 09:10:52;;;;;;;7.72;6.10;;;;;;;15.75;74.39;95708.44;10416510;28;20242;-68
2023/05/15 09:15:53;;;;;;;8.30;5.75;;;;;;;16.18;74.37;95710.38;10416469;28;20185;-68
2023/05/15 09:20:54;;;;;;;7.47;5.75;;;;;;;16.38;71.80;95687.19;10415852;28;20208;-68
2023/05/15 09:25:55;;;;;;;6.43;5.70;;;;;;;16.50;70.68;95683.84;10415954;28;20231;-68
2023/05/15 09:31:03;;;;;;;12.30;6.65;;;;;;;16.34;70.71;95690.50;10415739;28;20580;-67
2023/05/15 09:36:05;;;;;;;10.55;6.38;;;;;;;16.66;70.94;95706.25;10415123;28;20250;-68
2023/05/15 09:41:07;;;;;;;9.52;6.38;;;;;;;16.67;69.25;95671.66;10415501;28;20253;-67
2023/05/15 09:46:08;;;;;;;8.38;6.82;;;;;;;15.87;77.11;95768.28;10414927;28;20224;-68
2023/05/15 09:51:18;;;;;;;8.80;6.78;;;;;;;16.37;74.43;95727.06;10414827;28;20318;-68
2023/05/15 09:56:18;;;;;;;10.00;6.40;;;;;;;16.52;72.76;95708.22;10414790;28;20589;-68
2023/05/15 10:01:20;;;;;;;12.25;6.65;;;;;;;16.93;70.88;95688.28;10414425;28;20192;-68
2023/05/15 10:06:20;;;;;;;8.35;5.45;;;;;;;16.91;68.12;95654.13;10414464;28;20350;-68
2023/05/15 10:11:22;;;;;;;6.78;5.60;;;;;;;17.26;65.82;95619.03;10414221;28;20318;-68
2023/05/15 10:16:23;;;;;;;8.57;5.20;;;;;;;17.34;66.38;95636.44;10412614;28;20209;-68
2023/05/15 10:21:25;;;;;;;8.15;5.22;;;;;;;17.51;66.45;95647.19;10413804;28;20663;-68
2023/05/15 10:26:34;;;;;;;6.63;5.10;;;;;;;17.98;62.52;95588.22;10413230;28;20590;-67
2023/05/15 10:31:35;;;;;;;7.65;4.50;;;;;;;18.54;59.34;95554.09;10413329;28;20283;-67
2023/05/15 10:36:36;;;;;;;8.32;5.72;;;;;;;18.91;56.53;95524.56;10413338;28;20296;-68
2023/05/15 10:41:38;;;;;;;7.20;4.85;;;;;;;19.11;56.51;95524.13;10413042;28;20245;-67
2023/05/15 10:46:39;;;;;;;5.90;4.60;;;;;;;19.58;54.54;95504.41;10416720;28;20244;-68
2023/05/15 10:51:41;;;;;;;10.68;5.45;;;;;;;19.41;55.24;95521.16;10417482;28;20681;-67
2023/05/15 10:56:41;;;;;;;11.77;5.30;;;;;;;19.62;55.02;95532.09;10412996;28;20204;-67
2023/05/15 11:01:42;;;;;;;9.55;5.30;;;;;;;20.25;53.53;95506.13;10411253;28;20762;-67
2023/05/15 11:06:43;;;;;;;7.28;4.20;;;;;;;20.52;51.91;95481.44;10412005;28;20231;-67
2023/05/15 11:11:50;;;;;;;5.40;4.70;;;;;;;19.96;52.84;95484.25;10412120;28;20193;-67
2023/05/15 11:16:53;;;;;;;8.45;4.43;;;;;;;20.65;51.83;95474.94;10411467;28;20282;-66
2023/05/15 11:22:01;;;;;;;7.60;5.15;;;;;;;21.33;48.61;95422.00;10412029;28;20188;-67
2023/05/15 11:27:03;;;;;;;7.38;5.15;;;;;;;21.50;48.12;95413.06;10410699;28;20221;-67
2023/05/15 11:32:42;;;;;;;10.30;4.93;;;;;;;18.89;53.21;95452.34;10412327;28;20193;-67
2023/05/15 11:37:45;;;;;;;5.55;4.88;;;;;;;18.35;56.58;95524.31;10411110;28;20528;-67
2023/05/15 11:43:00;;;;;;;10.23;6.20;;;;;;;17.06;60.53;95566.41;10411239;28;20196;-67
2023/05/15 11:48:02;;;;;;;7.22;4.70;;;;;;;16.67;61.11;95567.72;10414401;23;20249;-68
2023/05/15 11:53:07;;;;;;;6.32;4.45;;;;;;;17.00;57.61;95497.69;10369058;28;20193;-68
2023/05/15 11:58:15;;;;;;;6.93;5.18;;;;;;;18.53;58.47;95557.81;10370386;28;20204;-67
2023/05/15 12:03:19;;;;;;;18.20;10.23;;;;;;;19.41;59.31;95584.91;10378968;28;20311;-68
2023/05/15 12:08:20;;;;;;;17.08;8.48;;;;;;;19.62;57.98;95556.03;10379193;28;20578;-68
2023/05/15 12:13:20;;;;;;;11.30;6.43;;;;;;;18.99;60.44;95584.41;10361269;28;20280;-69
2023/05/15 12:18:21;;;;;;;10.05;5.30;;;;;;;19.26;56.93;95534.19;10378711;28;20279;-69
2023/05/15 12:23:23;;;;;;;13.50;8.35;;;;;;;18.75;56.63;95504.09;10360870;28;20224;-67
2023/05/15 12:28:25;;;;;;;6.93;5.10;;;;;;;19.50;53.19;95463.13;10378165;28;20213;-67
2023/05/15 12:33:25;;;;;;;6.88;4.43;;;;;;;19.37;51.49;95429.75;10344100;28;20547;-67
2023/05/15 12:38:26;;;;;;;10.45;5.18;;;;;;;20.13;50.73;95431.81;10377611;28;20240;-67
2023/05/15 12:43:30;;;;;;;8.55;4.68;;;;;;;20.06;51.11;95439.19;10360134;28;20231;-68
2023/05/15 12:48:31;;;;;;;5.30;4.70;;;;;;;19.69;54.03;95502.72;10359315;28;20241;-67
2023/05/15 12:53:33;;;;;;;7.78;4.13;;;;;;;19.49;53.04;95474.78;10377382;28;20634;-67
2023/05/15 12:58:34;;;;;;;6.65;4.38;;;;;;;19.99;52.01;95472.31;10377277;28;20205;-68
2023/05/15 13:03:34;;;;;;;4.57;3.80;;;;;;;19.85;52.81;95482.50;10376793;28;20300;-67
2023/05/15 13:08:40;;;;;;;4.43;3.88;;;;;;;19.02;52.29;95444.09;10376923;28;20251;-68
2023/05/15 13:13:42;;;;;;;5.32;3.75;;;;;;;20.05;50.57;95429.59;10375785;28;20196;-68
2023/05/15 13:18:43;;;;;;;3.92;3.53;;;;;;;19.51;48.74;95352.34;10376435;28;20224;-68
2023/05/15 13:23:43;;;;;;;5.97;3.33;;;;;;;20.44;50.57;95434.00;10375927;28;20317;-69
2023/05/15 13:28:46;;;;;;;5.20;3.33;;;;;;;22.47;45.65;95372.63;10376159;28;20221;-70
2023/05/15 13:33:47;;;;;;;4.93;3.30;;;;;;;21.83;46.04;95368.44;10375548;28;20192;-70
2023/05/15 13:38:47;;;;;;;5.10;2.83;;;;;;;24.11;42.91;95368.91;10375504;28;20213;-69
2023/05/15 13:43:48;;;;;;;7.22;2.95;;;;;;;25.46;37.65;95287.16;10375232;28;20221;-70
2023/05/15 13:48:48;;;;;;;4.63;2.90;;;;;;;25.22;37.67;95272.94;10375019;28;20655;-69
2023/05/15 13:53:49;;;;;;;5.00;2.83;;;;;;;25.08;36.26;95229.97;10374846;28;20197;-69
2023/05/15 13:58:49;;;;;;;4.70;3.20;;;;;;;25.18;36.57;95248.63;10374520;28;20533;-69
2023/05/15 14:03:49;;;;;;;3.03;2.50;;;;;;;25.10;37.12;95259.97;10373897;28;20229;-69
2023/05/15 14:08:50;;;;;;;7.33;2.90;;;;;;;23.36;38.94;95249.44;10374680;28;20209;-68
2023/05/15 14:13:50;;;;;;;4.17;3.10;;;;;;;23.78;40.18;95296.28;10374095;28;20497;-68
2023/05/15 14:18:51;;;;;;;5.70;3.63;;;;;;;23.75;40.53;95296.84;10373659;28;20479;-69
2023/05/15 14:23:51;;;;;;;4.00;3.20;;;;;;;23.05;41.48;95294.91;10372908;28;20479;-68
2023/05/15 14:28:51;;;;;;;5.43;3.60;;;;;;;21.17;46.03;95351.84;10373631;28;20224;-66
2023/05/15 14:33:52;;;;;;;10.43;3.80;;;;;;;19.47;51.36;95415.00;10373221;28;20335;-67
2023/05/15 14:38:52;;;;;;;5.45;4.45;;;;;;;18.67;57.31;95527.31;10373152;28;20205;-66
2023/05/15 14:43:53;;;;;;;5.32;3.90;;;;;;;17.94;55.47;95471.25;10374027;28;20225;-69
2023/05/15 14:48:56;;;;;;;5.22;3.63;;;;;;;17.97;53.97;95431.03;10372491;28;20245;-69
2023/05/15 14:53:56;;;;;;;5.38;3.72;;;;;;;18.75;52.40;95425.31;10372218;28;20201;-67
2023/05/15 14:58:57;;;;;;;6.45;3.17;;;;;;;20.90;46.56;95370.56;10372756;28;20687;-68
2023/05/15 15:03:57;;;;;;;6.00;3.38;;;;;;;22.88;45.10;95391.34;10370587;28;20221;-68
2023/05/15 15:08:57;;;;;;;9.85;4.30;;;;;;;21.85;47.63;95415.13;10372679;28;20241;-68
2023/05/15 15:13:58;;;;;;;8.57;3.50;;;;;;;22.79;45.76;95411.66;10369296;28;20189;-69
2023/05/15 15:18:59;;;;;;;6.15;4.80;;;;;;;20.56;49.37;95429.31;10372502;28;20270;-68
2023/05/15 15:23:59;;;;;;;5.40;4.90;;;;;;;18.97;53.73;95486.44;10372077;28;20232;-68
2023/05/15 15:28:59;;;;;;;6.20;4.68;;;;;;;18.19;57.17;95539.06;10371635;28;20209;-68
2023/05/15 15:34:00;;;;;;;6.32;4.78;;;;;;;18.45;55.88;95518.38;10371231;28;20692;-69
2023/05/15 15:39:00;;;;;;;8.13;4.55;;;;;;;18.04;54.51;95470.69;10371284;28;20676;-68
2023/05/15 15:44:01;;;;;;;8.43;4.75;;;;;;;17.80;55.64;95489.22;10371546;28;20320;-68
2023/05/15 15:49:01;;;;;;;12.18;5.35;;;;;;;19.15;53.35;95480.13;10370572;28;20730;-68
2023/05/15 15:54:01;;;;;;;7.28;5.22;;;;;;;18.09;56.06;95507.09;10371045;28;20659;-68
2023/05/15 15:59:02;;;;;;;11.15;5.45;;;;;;;17.63;57.72;95536.78;10370605;28;20699;-68
2023/05/15 16:04:03;;;;;;;9.65;5.70;;;;;;;17.80;57.15;95525.50;10370890;28;20778;-69
2023/05/15 16:09:03;;;;;;;8.93;5.40;;;;;;;17.58;59.82;95572.94;10370794;28;20633;-68
2023/05/15 16:14:03;;;;;;;9.23;6.15;;;;;;;17.63;60.40;95581.81;10370500;28;20228;-68
2023/05/15 16:19:04;;;;;;;10.65;5.00;;;;;;;16.39;70.31;95730.31;10370714;28;20209;-69
2023/05/15 16:24:04;;;;;;;9.00;5.13;;;;;;;15.29;82.11;95742.00;10370059;28;20256;-68
2023/05/15 16:29:05;;;;;;;8.13;5.18;;;;;;;15.37;89.26;95733.81;10370350;28;20335;-68
2023/05/15 16:34:05;;;;;;;6.68;5.50;;;;;;;16.39;87.07;95715.25;10370240;28;20328;-69
2023/05/15 16:39:06;;;;;;;5.68;4.60;;;;;;;17.48;76.66;95653.75;10352555;28;20202;-68
2023/05/15 16:44:09;;;;;;;9.20;3.22;;;;;;;17.74;74.14;95643.00;10369441;28;20240;-69
2023/05/15 16:49:10;;;;;;;4.15;3.10;;;;;;;17.66;69.31;95609.69;10377071;28;20241;-68
2023/05/15 16:54:10;;;;;;;7.28;3.53;;;;;;;17.43;72.54;95655.47;10377678;28;20559;-69
2023/05/15 16:59:10;;;;;;;4.45;3.10;;;;;;;17.39;70.02;95625.97;10377125;28;20567;-68
2023/05/15 17:04:11;;;;;;;7.93;3.03;;;;;;;17.32;71.32;95662.34;10377194;28;20762;-67
2023/05/15 17:09:11;;;;;;;13.05;4.07;;;;;;;17.33;69.16;95626.88;10376707;28;20255;-67
2023/05/15 17:14:11;;;;;;;5.80;3.90;;;;;;;17.13;67.81;95619.22;10376588;28;20185;-66
2023/05/15 17:19:12;;;;;;;4.85;3.17;;;;;;;17.13;66.64;95605.19;10375906;28;20231;-66
2023/05/15 17:24:14;;;;;;;4.63;2.97;;;;;;;16.98;68.32;95650.56;10376105;28;20218;-68
2023/05/15 17:29:15;;;;;;;4.47;3.30;;;;;;;16.55;73.19;95718.34;10376139;28;20217;-68
2023/05/15 17:34:17;;;;;;;5.47;3.50;;;;;;;16.13;74.28;95713.66;10375455;28;20189;-68
2023/05/15 17:39:18;;;;;;;7.63;4.22;;;;;;;15.83;70.51;95661.50;10375048;28;20222;-68
2023/05/15 17:44:18;;;;;;;4.53;2.78;;;;;;;15.76;68.51;95641.38;10375318;28;20666;-67
2023/05/15 17:49:18;;;;;;;4.13;3.05;;;;;;;16.03;71.84;95708.03;10416379;23;20573;-65
2023/05/15 17:54:19;;;;;;;4.60;3.13;;;;;;;16.03;69.69;95676.34;10413656;28;20197;-66
2023/05/15 17:59:19;;;;;;;5.75;3.30;;;;;;;16.03;69.92;95692.19;10414958;28;20227;-66
2023/05/15 18:04:20;;;;;;;4.45;3.83;;;;;;;15.10;74.61;95749.78;10415429;28;20216;-65
2023/05/15 18:09:20;;;;;;;5.50;4.07;;;;;;;14.54;80.35;95793.28;10414754;28;20235;-66
2023/05/15 18:14:20;;;;;;;4.55;4.03;;;;;;;14.23;78.58;95747.28;10414781;28;20192;-65
2023/05/15 18:19:21;;;;;;;7.22;4.45;;;;;;;14.01;75.71;95741.41;10414422;28;20220;-65
2023/05/15 18:24:21;;;;;;;5.53;4.43;;;;;;;13.97;75.45;95744.66;10413974;28;20224;-65
2023/05/15 18:29:22;;;;;;;6.20;4.10;;;;;;;14.10;76.94;95765.72;10413942;28;20251;-66
2023/05/15 18:34:22;;;;;;;4.43;3.92;;;;;;;13.89;76.19;95743.84;10413748;28;20185;-66
2023/05/15 18:39:23;;;;;;;8.48;5.72;;;;;;;13.42;78.92;95786.84;10414000;28;20227;-66
2023/05/15 18:44:23;;;;;;;6.28;4.75;;;;;;;12.89;80.51;95790.00;10412992;28;20227;-65
2023/05/15 18:49:23;;;;;;;13.15;4.95;;;;;;;12.66;83.10;95812.09;10413045;28;20244;-66
2023/05/15 18:54:24;;;;;;;6.60;5.00;;;;;;;12.27;87.77;95837.06;10412850;28;20216;-65
2023/05/15 18:59:25;;;;;;;6.90;5.10;;;;;;;12.15;86.65;95828.06;10412765;28;20274;-66
2023/05/15 19:04:25;;;;;;;9.25;5.70;;;;;;;11.65;89.66;95831.34;10412545;28;20259;-65
2023/05/15 19:09:26;;;;;;;7.95;6.35;;;;;;;11.41;93.81;95853.50;10411738;28;20246;-65
2023/05/15 19:14:26;;;;;;;8.00;5.70;;;;;;;11.35;95.13;95859.47;10412466;28;20188;-65
2023/05/15 19:19:26;;;;;;;7.03;6.32;;;;;;;11.29;98.42;95874.13;10411729;28;20288;-64
2023/05/15 19:24:27;;;;;;;8.30;7.05;;;;;;;11.04;100.00;95882.25;10411938;28;20238;-65
2023/05/15 19:29:27;;;;;;;8.95;6.50;;;;;;;11.11;100.00;95882.34;10411613;28;20216;-64
2023/05/15 19:34:27;;;;;;;9.93;6.55;;;;;;;11.01;100.00;95893.09;10411551;28;20212;-65
2023/05/15 19:39:28;;;;;;;13.68;7.40;;;;;;;10.83;100.00;95897.88;10411471;28;20270;-65
2023/05/15 19:44:28;;;;;;;17.20;7.47;;;;;;;10.68;100.00;95908.31;10411157;28;20303;-64
2023/05/15 19:49:28;;;;;;;21.13;11.70;;;;;;;10.81;100.00;95899.81;10410961;28;20232;-65
2023/05/15 19:54:29;;;;;;;15.63;10.02;;;;;;;11.02;100.00;95884.22;10411161;28;20177;-65
2023/05/15 19:59:29;;;;;;;12.60;6.47;;;;;;;10.93;100.00;95906.25;10411024;28;20358;-66
2023/05/15 20:04:31;;;;;;;14.23;7.63;;;;;;;11.17;100.00;95897.34;10410838;28;20565;-65
2023/05/15 20:09:31;;;;;;;11.50;7.85;;;;;;;11.21;100.00;95889.94;10410952;28;20217;-65
2023/05/15 20:14:33;;;;;;;11.60;8.70;;;;;;;11.29;100.00;95902.97;10410637;28;20603;-66
2023/05/15 20:19:33;;;;;;;9.93;7.22;;;;;;;11.42;100.00;95884.78;10411156;28;20274;-65
2023/05/15 20:24:34;;;;;;;10.52;7.30;;;;;;;11.43;97.16;95883.78;10418883;28;20746;-66
2023/05/15 20:29:34;;;;;;;7.55;6.47;;;;;;;11.13;97.55;95882.16;10418543;28;20710;-66
2023/05/15 20:34:35;;;;;;;12.43;6.70;;;;;;;11.17;94.33;95870.31;10418481;28;20189;-66
2023/05/15 20:39:36;;;;;;;10.05;6.50;;;;;;;11.04;94.97;95876.19;10417951;28;20216;-66
2023/05/15 20:44:38;;;;;;;8.15;5.78;;;;;;;11.12;93.84;95876.09;10418122;28;20320;-66
2023/05/15 20:49:38;;;;;;;8.30;5.03;;;;;;;11.60;88.81;95873.09;10417436;28;20287;-65
2023/05/15 20:54:38;;;;;;;12.10;5.85;;;;;;;11.77;86.69;95857.94;10417696;28;20197;-66
2023/05/15 20:59:39;;;;;;;16.90;10.48;;;;;;;11.82;85.73;95852.13;10417249;28;20215;-65
2023/05/15 21:04:39;;;;;;;27.15;15.68;;;;;;;11.68;86.92;95872.16;10417087;28;20286;-65
2023/05/15 21:09:40;;;;;;;8.50;5.50;;;;;;;11.78;85.40;95870.06;10417023;28;20627;-65
2023/05/15 21:14:40;;;;;;;8.63;5.72;;;;;;;11.88;85.54;95867.13;10416427;28;20228;-65
2023/05/15 21:19:40;;;;;;;8.52;5.75;;;;;;;11.89;85.83;95866.16;10416512;28;20208;-65
2023/05/15 21:24:41;;;;;;;9.23;5.82;;;;;;;11.78;87.06;95878.75;10416252;28;20335;-65
2023/05/15 21:29:41;;;;;;;9.02;6.15;;;;;;;11.68;87.91;95878.22;10416203;28;20208;-65
2023/05/15 21:34:42;;;;;;;6.45;5.60;;;;;;;11.67;88.84;95886.28;10415814;28;20211;-66
2023/05/15 21:39:42;;;;;;;11.25;6.32;;;;;;;11.48;89.84;95892.91;10415770;28;20208;-65
2023/05/15 21:44:42;;;;;;;11.50;5.93;;;;;;;11.40;90.84;95910.34;10415895;28;20257;-66
2023/05/15 21:49:43;;;;;;;14.30;7.40;;;;;;;11.19;92.01;95918.13;10415109;28;20248;-66
2023/05/15 21:54:44;;;;;;;10.18;6.53;;;;;;;11.06;93.66;95918.78;10415667;28;20181;-66
2023/05/15 21:59:44;;;;;;;11.95;7.22;;;;;;;10.90;94.61;95911.84;10414909;28;20587;-66
2023/05/15 22:04:45;;;;;;;9.88;6.90;;;;;;;10.92;95.49;95924.78;10415003;28;20220;-65
2023/05/15 22:09:45;;;;;;;10.65;7.38;;;;;;;10.88;96.38;95935.63;10414756;28;20223;-66
2023/05/15 22:14:46;;;;;;;11.45;8.52;;;;;;;10.75;97.39;95934.59;10414275;28;20760;-65
2023/05/15 22:19:46;;;;;;;11.73;7.47;;;;;;;10.71;98.15;95936.75;10414380;28;20589;-66
2023/05/15 22:24:47;;;;;;;10.02;6.97;;;;;;;10.72;98.05;95935.78;10413958;28;20246;-66
2023/05/15 22:29:47;;;;;;;12.87;8.17;;;;;;;10.60;98.86;95951.09;10414035;28;20342;-66
2023/05/15 22:34:47;;;;;;;11.98;8.23;;;;;;;10.52;100.00;95949.34;10413615;28;20193;-66
2023/05/15 22:39:48;;;;;;;9.55;8.07;;;;;;;10.47;100.00;95943.00;10413204;28;20266;-65
2023/05/15 22:44:48;;;;;;;15.27;8.55;;;;;;;10.38;100.00;95963.19;10412714;28;20314;-65
2023/05/15 22:49:49;;;;;;;10.60;8.80;;;;;;;10.39;100.00;95969.25;10412794;28;20243;-65
2023/05/15 22:54:50;;;;;;;13.37;8.67;;;;;;;10.31;100.00;95960.41;10412985;28;20185;-65
2023/05/15 22:59:50;;;;;;;13.57;8.50;;;;;;;10.21;100.00;95967.66;10412613;28;20303;-65
2023/05/15 23:04:50;;;;;;;12.10;9.30;;;;;;;10.13;100.00;95962.50;10412531;28;20383;-65
2023/05/15 23:09:51;;;;;;;15.83;9.10;;;;;;;10.10;100.00;95970.69;10412341;28;20220;-65
2023/05/15 23:14:51;;;;;;;17.13;9.23;;;;;;;9.91;100.00;95975.34;10412343;28;20227;-65